• Join FlightAware (Why Join?)
  • Login
  • US Flag 
10:45PM EST


 

Airport Tracker/Info


-or-


 

Live Flight TrackerFlight Track Log ✈ GLA61C ✈ 22-Apr-2013 ✈ KCEZ - KDEN

Flight Track Log - Related Links

Times and Time Zones

All times are in EDT time to prevent confusion due to time zone crossing. See the GLA61C flight status page for this flight to view local times or setup timezone preferences in your user account.

Time Position Orientation Groundspeed Altitude Reporting Facility
EDT Latitude Longitude Course Direction KTS MPH feet Rate Location/Type
08:04AM 37.3447 -108.5908 48° Northeast 140 161 8,200  Level Denver Center
08:05AM 37.3814 -108.5569 36° Northeast 166 191 10,400 2,220 Climbing Denver Center
08:06AM 37.4214 -108.5103 43° Northeast 170 196 12,700 2,040 Climbing Denver Center
08:07AM 37.6036 -108.2054 48° Northeast  Level FlightAware Approximate
08:07AM 37.4575 -108.4664 44° Northeast 178 205 14,600  Level Denver Center
08:08AM 37.6538 -108.1361 48° Northeast  Level FlightAware Approximate
08:08AM 37.4956 -108.4150 47° Northeast 195 224 16,400  Level Denver Center
08:09AM 37.7039 -108.0667 48° Northeast  Level FlightAware Approximate
08:09AM 37.5383 -108.3464 52° Northeast 215 247 18,400  Level Denver Center
08:10AM 37.7541 -107.9972 48° Northeast  Level FlightAware Approximate
08:10AM 37.5769 -108.2886 50° Northeast 222 255 19,900  Level Denver Center
08:11AM 37.6131 -108.2297 52° Northeast 221 254 21,200 1,200 Climbing Denver Center
08:12AM 37.6533 -108.1625 53° Northeast 244 281 22,400 1,140 Climbing Denver Center
08:13AM 37.7039 -108.0892 49° Northeast 248 285 23,600 1,140 Climbing Denver Center
08:14AM 37.7464 -108.0247 50° Northeast 249 287 24,700 660 Climbing Denver Center
08:15AM 37.7933 -107.9589 48° Northeast 261 300 25,000 120 Climbing Denver Center
08:16AM 37.8539 -107.8783 46° Northeast 280 322 25,000  Level Denver Center
08:17AM 37.9056 -107.8019 49° Northeast 292 336 25,000  Level Denver Center
08:18AM 37.9617 -107.7286 46° Northeast 300 345 25,000  Level Denver Center
08:19AM 38.0267 -107.6456 45° Northeast 299 344 25,000  Level Denver Center
08:20AM 38.0864 -107.5719 44° Northeast 296 341 25,000  Level Denver Center
08:21AM 38.1422 -107.4975 46° Northeast 301 346 25,000  Level Denver Center
08:22AM 38.1958 -107.4231 47° Northeast 298 343 25,000  Level Denver Center
08:23AM 38.2503 -107.3475 47° Northeast 302 348 25,000  Level Denver Center
08:24AM 38.3128 -107.2589 48° Northeast 302 348 25,000  Level Denver Center
08:25AM 38.3653 -107.1750 51° Northeast 308 354 25,000  Level Denver Center
08:26AM 38.4169 -107.0850 54° Northeast 313 360 25,000  Level Denver Center
08:28AM 38.4714 -107.0036 49° Northeast 305 351 25,000  Level Denver Center
08:29AM 38.5028 -106.8867 71° East 341 392 25,000 -60 Level Denver Center
08:30AM 38.5392 -106.7756 67° East 340 391 24,900  Descending Denver Center
08:31AM 38.5747 -106.6617 68° East 344 396 25,000  Climbing Denver Center
08:32AM 38.6125 -106.5500 67° East 344 396 25,000  Level Denver Center
08:33AM 38.6461 -106.4381 69° East 339 390 25,000  Level Denver Center
08:34AM 38.6800 -106.3236 69° East 343 395 25,000  Level Denver Center
08:35AM 38.7136 -106.2089 69° East 343 395 25,000 -60 Level Denver Center
08:36AM 38.7542 -106.0811 68° East 340 391 24,900 -60 Descending Denver Center
08:37AM 38.8025 -105.9917 55° Northeast 314 361 24,900  Level Denver Center
08:38AM 38.8533 -105.9072 52° Northeast 312 359 25,000 60 Climbing Denver Center
08:39AM 38.9128 -105.8092 52° Northeast 311 358 25,100  Climbing Denver Center
08:40AM 38.9617 -105.7222 54° Northeast 312 359 25,000 -540 Descending Denver Center
08:41AM 39.0283 -105.6119 52° Northeast 305 351 24,000 -1,440 Descending Denver Center
08:42AM 39.0800 -105.5411 47° Northeast 288 331 21,800 -1,980 Descending Denver Center
08:43AM 39.1328 -105.4697 46° Northeast 293 337 20,000 -2,040 Descending Denver Center
08:44AM 39.1950 -105.3911 44° Northeast 284 327 17,700 -2,040 Descending Denver Center
08:45AM 39.2553 -105.3197 43° Northeast 292 336 16,000 -1,380 Descending Denver Center
08:46AM 39.3128 -105.2492 44° Northeast 286 329 15,000 -1,320 Descending Denver Center
08:47AM 39.3422 -105.1614 67° East 293 337 13,400 -1,020 Descending Denver Center
08:48AM 39.3694 -105.0617 71° East 271 312 13,000 -300 Descending Denver Center
08:49AM 39.4133 -104.9839 54° Northeast 270 311 12,900 -120 Descending Denver Center
08:50AM 39.4583 -104.9072 53° Northeast 266 306 12,800 -960 Descending Denver Center
08:51AM 39.4981 -104.8344 55° Northeast 250 288 11,000 -1,440 Descending Denver Center
08:52AM 39.5339 -104.7564 59° Northeast 253 291 9,900 -600 Descending Denver Center
08:53AM 39.5914 -104.7019 36° Northeast 245 282 9,900 -300 Level Denver Center
08:54AM 39.6542 -104.6586 28° Northeast 261 300 9,400 -1,140 Descending Denver Center
08:55AM 39.7244 -104.6617 358° North 252 290 7,700 -1,440 Descending Denver Center
08:56AM 39.7803 -104.6617 360° North 193 222 6,500 -1,080 Descending Denver Center
08:57AM 39.8194 -104.6606 North 143 165 5,600 -900 Descending Denver Center
08:59AM 39.8500 -104.6667 346° North  Level FlightAware Approximate
09:06AM 39.8617 -104.6732 346° North  Level Estimated
09:07AM 39.8617 -104.6732 346° North  Level Estimated
09:08AM 39.8617 -104.6732 346° North  Level Estimated